Time;durP1;ratioP1;P1;durP2;ratioP2;P2;SDS_P1;SDS_P2;PMS_P1;PMS_P2;Temp;Humidity;BMP_temperature;BMP_pressure;BME280_temperature;BME280_humidity;BME280_pressure;Samples;Min_cycle;Max_cycle;Signal;HPM_P1;HPM_P2
2023/05/07 00:00:49;;;;;;;10.70;6.15;;;;;;;13.96;nan;100610.13;4941437;28;20044;-70
2023/05/07 00:03:15;;;;;;;8.18;5.78;;;;;;;13.93;nan;100607.94;4924412;29;20032;-70
2023/05/07 00:05:41;;;;;;;6.75;5.50;;;;;;;13.75;nan;100585.19;4924635;29;20040;-70
2023/05/07 00:08:06;;;;;;;8.88;6.03;;;;;;;13.91;nan;100613.50;4922557;29;20487;-69
2023/05/07 00:10:32;;;;;;;7.63;5.85;;;;;;;13.88;nan;100618.44;4926450;28;20111;-70
2023/05/07 00:12:57;;;;;;;10.10;6.15;;;;;;;13.81;nan;100600.91;4926056;29;20027;-75
2023/05/07 00:15:22;;;;;;;10.73;6.20;;;;;;;13.87;nan;100622.94;4924952;29;20043;-75
2023/05/07 00:17:48;;;;;;;11.75;6.32;;;;;;;13.86;nan;100623.19;4921192;29;20039;-74
2023/05/07 00:20:13;;;;;;;9.43;6.03;;;;;;;13.76;nan;100608.72;4921934;29;20027;-75
2023/05/07 00:22:39;;;;;;;10.65;6.43;;;;;;;13.68;nan;100603.84;4920617;29;20036;-75
2023/05/07 00:25:05;;;;;;;8.32;6.47;;;;;;;13.77;nan;100622.78;4939382;28;20038;-75
2023/05/07 00:27:30;;;;;;;8.88;6.05;;;;;;;13.66;nan;100613.88;4920632;29;20100;-75
2023/05/07 00:29:56;;;;;;;10.07;6.88;;;;;;;13.63;nan;100617.00;4920618;29;20052;-75
2023/05/07 00:32:21;;;;;;;11.80;6.97;;;;;;;13.54;nan;100619.22;4917470;29;20039;-76
2023/05/07 00:34:46;;;;;;;13.48;6.60;;;;;;;13.45;nan;100609.28;4918107;29;20483;-75
2023/05/07 00:37:12;;;;;;;8.75;6.28;;;;;;;13.49;nan;100627.09;4917206;29;20140;-72
2023/05/07 00:39:37;;;;;;;9.45;6.65;;;;;;;13.44;nan;100623.56;4919230;29;20028;-71
2023/05/07 00:42:03;;;;;;;10.90;7.10;;;;;;;13.34;nan;100611.75;4920673;29;20028;-73
2023/05/07 00:44:29;;;;;;;10.30;6.20;;;;;;;13.19;nan;100611.44;4917884;29;20040;-72
2023/05/07 00:46:56;;;;;;;11.77;6.40;;;;;;;13.14;nan;100611.34;4920566;29;20024;-72
2023/05/07 00:49:24;;;;;;;9.75;5.88;;;;;;;13.13;nan;100615.03;4916998;29;20040;-72
2023/05/07 00:51:50;;;;;;;11.10;6.40;;;;;;;13.15;nan;100620.91;4918565;29;20032;-71
2023/05/07 00:54:16;;;;;;;10.15;6.47;;;;;;;13.11;nan;100617.13;4920554;29;20107;-72
2023/05/07 00:56:41;;;;;;;11.80;6.65;;;;;;;13.02;nan;100602.66;4920830;29;20042;-72
2023/05/07 00:59:07;;;;;;;9.77;6.13;;;;;;;12.98;nan;100605.78;4920358;29;20058;-73
2023/05/07 01:01:33;;;;;;;15.70;6.82;;;;;;;12.99;nan;100614.50;4919857;29;20027;-71
2023/05/07 01:03:58;;;;;;;11.05;6.68;;;;;;;12.89;nan;100601.91;4917653;29;20478;-73
2023/05/07 01:06:27;;;;;;;8.80;6.32;;;;;;;12.92;nan;100612.00;4933736;28;20044;-72
2023/05/07 01:08:56;;;;;;;12.02;6.72;;;;;;;12.89;nan;100615.13;4919408;29;20196;-72
2023/05/07 01:11:22;;;;;;;14.07;7.05;;;;;;;12.88;nan;100610.06;4921122;28;20620;-73
2023/05/07 01:13:49;;;;;;;9.27;6.50;;;;;;;12.87;nan;100611.09;4921953;29;20228;-72
2023/05/07 01:16:15;;;;;;;8.82;6.13;;;;;;;12.81;nan;100601.47;4918709;29;20494;-73
2023/05/07 01:18:41;;;;;;;11.35;6.53;;;;;;;12.84;nan;100607.09;4917490;29;20118;-73
2023/05/07 01:21:10;;;;;;;11.57;6.38;;;;;;;12.85;nan;100613.19;4932865;28;20036;-73
2023/05/07 01:23:36;;;;;;;10.40;6.43;;;;;;;12.71;nan;100591.50;4919522;29;20090;-75
2023/05/07 01:26:01;;;;;;;10.10;6.07;;;;;;;12.74;nan;100605.06;4927131;29;20455;-75
2023/05/07 01:28:26;;;;;;;10.38;6.50;;;;;;;12.71;nan;100596.78;4920876;29;20024;-74
2023/05/07 01:31:03;;;;;;;10.70;6.30;;;;;;;12.73;nan;100600.00;4920209;29;20028;-74
2023/05/07 01:33:33;;;;;;;10.13;6.22;;;;;;;12.73;nan;100614.00;4916169;29;20028;-74
2023/05/07 01:36:03;;;;;;;10.48;6.28;;;;;;;12.62;nan;100591.06;4921849;29;20146;-76
2023/05/07 01:38:29;;;;;;;9.55;6.50;;;;;;;12.45;nan;100572.50;4918494;28;20430;-76
2023/05/07 01:40:56;;;;;;;11.77;6.28;;;;;;;12.58;nan;100597.84;4921374;29;20139;-75
2023/05/07 01:43:21;;;;;;;10.60;7.22;;;;;;;12.60;nan;100606.34;4916171;29;20055;-76
2023/05/07 01:45:48;;;;;;;12.27;7.72;;;;;;;12.46;nan;100595.22;4921637;29;20059;-75
2023/05/07 01:48:15;;;;;;;9.60;7.15;;;;;;;12.48;nan;100608.22;4919324;29;20408;-75
2023/05/07 01:50:42;;;;;;;17.73;7.20;;;;;;;12.40;nan;100612.00;4919465;29;20043;-75
2023/05/07 01:53:08;;;;;;;13.50;7.35;;;;;;;12.13;nan;100588.72;4919115;29;20076;-75
2023/05/07 01:55:33;;;;;;;14.10;7.22;;;;;;;12.23;nan;100616.38;4924378;29;20035;-75
2023/05/07 01:57:58;;;;;;;14.15;7.45;;;;;;;12.15;nan;100603.53;4924186;29;20032;-75
2023/05/07 02:00:24;;;;;;;12.05;7.32;;;;;;;12.14;nan;100608.00;4924727;29;20087;-75
2023/05/07 02:02:49;;;;;;;12.20;7.47;;;;;;;12.11;nan;100603.16;4921919;29;20099;-74
2023/05/07 02:05:15;;;;;;;15.45;7.97;;;;;;;12.13;nan;100606.38;4924761;29;20140;-74
2023/05/07 02:07:40;;;;;;;12.30;8.00;;;;;;;12.02;nan;100601.91;4931648;29;20118;-74
2023/05/07 02:10:06;;;;;;;14.52;8.63;;;;;;;11.93;nan;100608.59;4923049;29;20103;-74
2023/05/07 02:12:31;;;;;;;14.15;7.88;;;;;;;11.73;nan;100600.94;4921564;29;20027;-75
2023/05/07 02:14:57;;;;;;;14.07;7.57;;;;;;;11.87;nan;100620.81;4928883;29;20032;-72
2023/05/07 02:17:22;;;;;;;11.15;7.53;;;;;;;11.79;nan;100618.50;4923774;29;20032;-73
2023/05/07 02:19:47;;;;;;;14.98;8.30;;;;;;;11.83;nan;100609.13;4921578;29;20475;-72
2023/05/07 02:22:13;;;;;;;17.48;8.70;;;;;;;11.83;nan;100611.75;4927228;29;20028;-72
2023/05/07 02:24:38;;;;;;;12.10;8.02;;;;;;;11.76;nan;100611.06;4923771;29;20578;-72
2023/05/07 02:27:03;;;;;;;12.73;8.18;;;;;;;11.65;nan;100592.31;4922943;29;20047;-72
2023/05/07 02:29:29;;;;;;;14.50;8.55;;;;;;;11.67;nan;100598.19;4920722;29;20211;-73
2023/05/07 02:31:55;;;;;;;16.58;8.27;;;;;;;11.70;nan;100600.34;4921628;29;20028;-73
2023/05/07 02:34:21;;;;;;;14.30;8.57;;;;;;;11.70;nan;100600.34;4922303;29;20644;-71
2023/05/07 02:36:46;;;;;;;11.63;7.78;;;;;;;11.61;nan;100577.16;4936480;28;20031;-71
2023/05/07 02:39:12;;;;;;;11.90;7.55;;;;;;;11.63;nan;100575.91;4940075;28;20036;-72
2023/05/07 02:41:38;;;;;;;11.05;8.10;;;;;;;11.66;nan;100588.66;4920706;29;20115;-72
2023/05/07 02:44:03;;;;;;;14.07;8.25;;;;;;;11.74;nan;100598.06;4921574;29;20177;-72
2023/05/07 02:46:29;;;;;;;11.32;7.95;;;;;;;11.62;nan;100579.59;4923272;29;20036;-73
2023/05/07 02:48:54;;;;;;;10.90;7.70;;;;;;;11.63;nan;100586.47;4931770;29;20115;-73
2023/05/07 02:51:21;;;;;;;16.00;7.80;;;;;;;11.67;nan;100598.19;4933254;29;20047;-72
2023/05/07 02:53:47;;;;;;;13.68;7.65;;;;;;;11.67;nan;100595.53;4930631;29;20114;-72
2023/05/07 02:56:12;;;;;;;14.48;8.15;;;;;;;11.69;nan;100596.13;4930917;29;20426;-72
2023/05/07 02:58:41;;;;;;;15.55;8.07;;;;;;;11.71;nan;100609.88;4931377;29;20032;-72
2023/05/07 03:01:08;;;;;;;16.08;7.88;;;;;;;11.57;nan;100582.13;4924627;29;20066;-72
2023/05/07 03:03:34;;;;;;;13.98;7.63;;;;;;;11.74;nan;100607.84;4918896;29;20047;-72
2023/05/07 03:05:59;;;;;;;16.45;9.15;;;;;;;11.68;nan;100605.06;4920668;29;20059;-72
2023/05/07 03:08:25;;;;;;;17.13;8.27;;;;;;;11.67;nan;100607.94;4925406;29;20028;-72
2023/05/07 03:10:50;;;;;;;13.38;7.88;;;;;;;11.54;nan;100585.22;4922852;29;20031;-72
2023/05/07 03:13:16;;;;;;;10.57;7.72;;;;;;;11.55;nan;100604.47;4929607;29;20047;-72
2023/05/07 03:15:42;;;;;;;14.73;8.60;;;;;;;11.55;nan;100604.47;4924719;29;20043;-72
2023/05/07 03:18:07;;;;;;;13.90;8.27;;;;;;;11.54;nan;100614.22;4923055;29;20028;-73
2023/05/07 03:20:33;;;;;;;15.93;8.18;;;;;;;11.53;nan;100612.59;4922877;29;20051;-71
2023/05/07 03:22:58;;;;;;;13.75;8.23;;;;;;;11.51;nan;100617.28;4922666;29;20035;-73
2023/05/07 03:25:23;;;;;;;14.52;7.97;;;;;;;11.42;nan;100610.72;4922605;29;20054;-73
2023/05/07 03:27:49;;;;;;;13.07;8.13;;;;;;;11.37;nan;100614.03;4920937;29;20019;-73
2023/05/07 03:30:14;;;;;;;13.05;8.65;;;;;;;11.38;nan;100614.84;4918476;29;20033;-73
2023/05/07 03:32:40;;;;;;;16.77;8.20;;;;;;;11.33;nan;100612.91;4922039;29;20415;-72
2023/05/07 03:35:06;;;;;;;13.68;8.15;;;;;;;11.27;nan;100638.31;4922237;29;20079;-73
2023/05/07 03:37:31;;;;;;;18.08;9.00;;;;;;;11.16;nan;100625.91;4920853;29;20028;-71
2023/05/07 03:39:57;;;;;;;16.60;8.90;;;;;;;11.13;nan;100626.31;4919720;29;20043;-72
2023/05/07 03:42:24;;;;;;;14.93;9.90;;;;;;;11.11;nan;100625.75;4926223;29;20036;-72
2023/05/07 03:44:49;;;;;;;15.63;9.40;;;;;;;11.09;nan;100621.75;4921678;29;20039;-72
2023/05/07 03:47:15;;;;;;;17.75;9.65;;;;;;;11.02;nan;100619.19;4918469;29;20024;-72
2023/05/07 03:49:40;;;;;;;13.77;9.18;;;;;;;11.01;nan;100628.94;4920086;29;20118;-73
2023/05/07 03:52:06;;;;;;;16.38;9.60;;;;;;;11.07;nan;100630.66;4922634;29;20032;-73
2023/05/07 03:54:32;;;;;;;17.23;10.32;;;;;;;10.93;nan;100617.88;4918202;29;20601;-73
2023/05/07 03:56:57;;;;;;;17.42;10.60;;;;;;;10.97;nan;100642.78;4921964;29;20128;-73
2023/05/07 03:59:22;;;;;;;17.40;10.38;;;;;;;11.02;nan;100650.81;4922090;29;20939;-72
2023/05/07 04:01:51;;;;;;;18.73;11.35;;;;;;;10.91;nan;100641.00;4920122;29;20042;-77
2023/05/07 04:04:16;;;;;;;17.42;11.20;;;;;;;10.97;nan;100645.41;4924225;29;20031;-76
2023/05/07 04:06:42;;;;;;;17.50;11.00;;;;;;;10.83;nan;100618.41;4920862;29;20130;-75
2023/05/07 04:09:08;;;;;;;16.75;10.05;;;;;;;10.99;nan;100651.22;4920517;29;20051;-76
2023/05/07 04:11:35;;;;;;;19.85;11.40;;;;;;;10.90;nan;100634.13;4919984;29;20040;-76
2023/05/07 04:14:00;;;;;;;16.17;11.05;;;;;;;10.93;nan;100628.41;4917552;29;20075;-79
2023/05/07 04:16:25;;;;;;;18.67;11.32;;;;;;;11.00;nan;100637.03;4919467;29;20841;-75
2023/05/07 04:18:51;;;;;;;19.35;10.85;;;;;;;11.04;nan;100649.56;4920644;29;20107;-75
2023/05/07 04:21:18;;;;;;;20.80;11.45;;;;;;;11.10;nan;100652.34;4920590;29;20061;-77
2023/05/07 04:23:44;;;;;;;17.20;11.27;;;;;;;11.14;nan;100654.31;4918721;29;20032;-75
2023/05/07 04:26:10;;;;;;;21.20;11.30;;;;;;;11.21;nan;100646.31;4918759;29;20031;-77
2023/05/07 04:28:35;;;;;;;31.00;15.32;;;;;;;11.30;nan;100644.97;4919170;29;20069;-76
2023/05/07 04:31:00;;;;;;;64.18;41.28;;;;;;;11.45;nan;100631.38;4919515;29;20038;-75
2023/05/07 04:33:26;;;;;;;23.10;15.07;;;;;;;11.63;nan;100633.16;4921903;29;20056;-75
2023/05/07 04:35:51;;;;;;;15.40;11.13;;;;;;;11.69;nan;100654.16;4921320;29;20036;-75
2023/05/07 04:38:18;;;;;;;15.30;10.65;;;;;;;11.60;nan;100626.50;4922450;28;20063;-76
2023/05/07 04:40:44;;;;;;;19.13;12.00;;;;;;;11.71;nan;100644.19;4917710;29;20500;-76
2023/05/07 04:43:09;;;;;;;17.05;10.73;;;;;;;11.89;nan;100653.06;4922209;29;20040;-75
2023/05/07 04:45:40;;;;;;;16.45;11.10;;;;;;;11.92;nan;100636.78;4921491;29;20466;-76
2023/05/07 04:48:05;;;;;;;20.85;12.65;;;;;;;12.08;nan;100656.44;4920814;29;20079;-74
2023/05/07 04:50:31;;;;;;;18.42;11.57;;;;;;;12.15;nan;100648.41;4919827;29;20498;-76
2023/05/07 04:52:56;;;;;;;16.77;11.10;;;;;;;12.21;nan;100650.13;4920906;29;20071;-76
2023/05/07 04:55:22;;;;;;;18.02;11.18;;;;;;;12.33;nan;100657.03;4920235;29;20471;-75
2023/05/07 04:57:47;;;;;;;15.82;11.05;;;;;;;12.40;nan;100659.53;4918194;29;20027;-74
2023/05/07 05:00:16;;;;;;;18.63;10.23;;;;;;;12.51;nan;100666.66;4921164;29;20035;-76
2023/05/07 05:02:41;;;;;;;15.00;10.82;;;;;;;12.82;nan;100693.72;4936180;28;20051;-76
2023/05/07 05:05:07;;;;;;;15.15;9.77;;;;;;;12.76;nan;100660.28;4919907;29;20434;-76
2023/05/07 05:07:33;;;;;;;15.25;9.32;;;;;;;12.85;nan;100648.31;4922188;29;20646;-76
2023/05/07 05:09:58;;;;;;;15.00;9.38;;;;;;;12.97;nan;100654.38;4920364;29;20172;-75
2023/05/07 05:12:23;;;;;;;18.85;9.73;;;;;;;13.02;nan;100637.03;4917507;29;20035;-75
2023/05/07 05:14:49;;;;;;;18.58;8.68;;;;;;;13.11;nan;100632.97;4919843;29;20038;-76
2023/05/07 05:17:14;;;;;;;11.18;7.80;;;;;;;13.32;nan;100645.56;4921304;29;20028;-76
2023/05/07 05:19:40;;;;;;;19.02;8.07;;;;;;;13.41;nan;100648.66;4919724;29;20390;-76
2023/05/07 05:22:06;;;;;;;12.32;7.93;;;;;;;13.49;nan;100665.97;4920572;29;20039;-76
2023/05/07 05:24:31;;;;;;;12.75;7.65;;;;;;;13.51;nan;100650.66;4906389;29;20575;-76
2023/05/07 05:26:57;;;;;;;16.67;7.38;;;;;;;13.58;nan;100649.47;4918051;29;20044;-77
2023/05/07 05:29:22;;;;;;;15.35;7.50;;;;;;;13.61;nan;100633.09;4921774;29;20471;-77
2023/05/07 05:31:48;;;;;;;12.88;7.72;;;;;;;13.79;nan;100650.63;4922576;29;20038;-78
2023/05/07 05:34:13;;;;;;;13.32;7.13;;;;;;;13.96;nan;100644.53;4927798;29;20123;-78
2023/05/07 05:36:38;;;;;;;11.07;7.40;;;;;;;;;;4932178;29;20035;-76
2023/05/07 05:39:04;;;;;;;7.47;5.82;;;;;;;;;;4936061;29;20043;-74
2023/05/07 05:41:29;;;;;;;8.48;5.90;;;;;;;;;;4937437;29;20042;-76
2023/05/07 05:43:54;;;;;;;9.70;6.20;;;;;;;;;;4935429;29;20036;-76
2023/05/07 05:46:20;;;;;;;8.03;5.40;;;;;;;;;;4940226;29;20168;-77
2023/05/07 05:48:45;;;;;;;8.87;5.30;;;;;;;;;;4933276;29;20277;-77
2023/05/07 05:51:10;;;;;;;9.60;5.40;;;;;;;14.43;nan;100660.84;4930637;29;20278;-76
2023/05/07 05:53:36;;;;;;;6.18;4.85;;;;;;;14.47;nan;100648.72;4930545;29;20623;-76
2023/05/07 05:56:02;;;;;;;11.60;4.90;;;;;;;14.61;nan;100661.66;4927903;29;20035;-76
2023/05/07 05:58:27;;;;;;;10.00;4.60;;;;;;;14.65;nan;100660.91;4925894;29;20031;-75
2023/05/07 06:00:53;;;;;;;8.52;4.60;;;;;;;14.76;nan;100666.34;4925582;29;20028;-77
2023/05/07 06:03:18;;;;;;;5.43;3.97;;;;;;;14.79;nan;100657.88;4923635;29;20044;-75
2023/05/07 06:05:44;;;;;;;10.10;4.10;;;;;;;14.88;nan;100667.81;4923225;29;20051;-76
2023/05/07 06:08:09;;;;;;;10.20;3.80;;;;;;;15.09;nan;100673.38;4933304;29;20430;-76
2023/05/07 06:10:37;;;;;;;7.25;3.92;;;;;;;15.12;nan;100659.59;4924305;29;20031;-77
2023/05/07 06:13:02;;;;;;;10.88;4.30;;;;;;;15.30;nan;100669.09;4923007;29;20043;-75
2023/05/07 06:15:27;;;;;;;4.20;3.15;;;;;;;15.41;nan;100667.34;4922986;29;20443;-74
2023/05/07 06:17:53;;;;;;;6.75;2.97;;;;;;;15.47;nan;100667.16;4924093;29;20186;-74
2023/05/07 06:20:18;;;;;;;5.85;2.80;;;;;;;15.45;nan;100663.13;4927265;29;20043;-75
2023/05/07 06:22:43;;;;;;;5.28;3.03;;;;;;;15.57;nan;100669.09;4924150;29;20067;-73
2023/05/07 06:25:09;;;;;;;6.35;2.65;;;;;;;15.58;nan;100659.28;4924249;29;20031;-74
2023/05/07 06:27:34;;;;;;;4.85;2.97;;;;;;;15.60;nan;100654.50;4923216;29;20038;-77
2023/05/07 06:30:00;;;;;;;4.93;3.13;;;;;;;15.69;nan;100666.28;4924068;29;20458;-75
2023/05/07 06:32:26;;;;;;;4.40;2.60;;;;;;;15.78;nan;100672.78;4922517;29;20043;-78
2023/05/07 06:34:51;;;;;;;6.22;2.83;;;;;;;15.77;nan;100652.56;4925838;29;20028;-73
2023/05/07 06:37:17;;;;;;;5.35;2.72;;;;;;;15.85;nan;100670.72;4920675;29;20028;-74
2023/05/07 06:39:42;;;;;;;13.43;2.70;;;;;;;15.84;nan;100653.16;4923495;29;20599;-77
2023/05/07 06:42:07;;;;;;;7.38;3.45;;;;;;;15.99;nan;100654.31;4925486;29;20034;-76
2023/05/07 06:44:33;;;;;;;3.28;2.20;;;;;;;16.09;nan;100663.19;4928071;29;20110;-76
2023/05/07 06:46:58;;;;;;;8.55;2.38;;;;;;;16.22;nan;100669.13;4924937;29;20679;-76
2023/05/07 06:49:24;;;;;;;4.78;2.08;;;;;;;16.23;nan;100658.22;4921208;29;20071;-75
2023/05/07 06:51:49;;;;;;;3.55;2.08;;;;;;;16.34;nan;100659.09;4921947;29;20024;-75
2023/05/07 06:54:15;;;;;;;6.13;2.10;;;;;;;16.52;nan;100668.47;4921482;29;20142;-74
2023/05/07 06:56:40;;;;;;;8.00;2.33;;;;;;;16.53;nan;100662.13;4921762;29;20450;-74
2023/05/07 06:59:06;;;;;;;4.55;2.08;;;;;;;16.59;nan;100651.25;4924226;29;20671;-76
2023/05/07 07:01:31;;;;;;;6.50;2.30;;;;;;;16.65;nan;100660.06;4922579;29;20466;-76
2023/05/07 07:03:57;;;;;;;4.07;2.30;;;;;;;16.78;nan;100664.94;4923232;29;20038;-75
2023/05/07 07:06:22;;;;;;;3.38;2.08;;;;;;;16.93;nan;100658.88;4921788;29;20055;-76
2023/05/07 07:08:47;;;;;;;3.42;2.00;;;;;;;16.94;nan;100649.03;4925376;29;20035;-74
2023/05/07 07:11:13;;;;;;;4.93;2.38;;;;;;;17.02;nan;100648.50;4922112;29;20031;-75
2023/05/07 07:13:39;;;;;;;4.50;1.77;;;;;;;17.16;nan;100664.78;4917184;29;20040;-75
2023/05/07 07:16:05;;;;;;;6.18;2.15;;;;;;;17.16;nan;100654.94;4927769;29;20031;-74
2023/05/07 07:18:30;;;;;;;5.68;2.20;;;;;;;17.31;nan;100658.69;4920491;29;20047;-74
2023/05/07 07:20:56;;;;;;;2.70;2.03;;;;;;;17.46;nan;100669.41;4919074;29;20394;-77
2023/05/07 07:23:21;;;;;;;3.05;2.25;;;;;;;17.61;nan;100677.38;4921644;29;20111;-76
2023/05/07 07:25:47;;;;;;;9.60;2.50;;;;;;;17.76;nan;100665.94;4919865;29;20065;-75
2023/05/07 07:28:12;;;;;;;5.10;2.40;;;;;;;17.74;nan;100656.63;4927734;29;20032;-75
2023/05/07 07:30:39;;;;;;;4.90;2.15;;;;;;;17.92;nan;100677.44;4921959;29;20121;-75
2023/05/07 07:33:05;;;;;;;4.90;2.03;;;;;;;18.10;nan;100681.44;4927410;29;20028;-76
2023/05/07 07:35:31;;;;;;;4.57;2.05;;;;;;;18.19;nan;100671.00;4911279;29;20048;-74
2023/05/07 07:37:56;;;;;;;4.88;2.03;;;;;;;18.22;nan;100662.47;4922914;29;20034;-74
2023/05/07 07:40:22;;;;;;;3.17;2.17;;;;;;;18.32;nan;100675.00;4913115;28;20518;-74
2023/05/07 07:42:47;;;;;;;5.40;2.05;;;;;;;18.41;nan;100681.38;4921945;29;20498;-76
2023/05/07 07:45:13;;;;;;;2.92;1.92;;;;;;;18.37;nan;100667.78;4920602;28;20058;-77
2023/05/07 07:47:39;;;;;;;4.85;2.10;;;;;;;18.54;nan;100690.69;4924944;29;20123;-77
2023/05/07 07:50:06;;;;;;;6.25;1.73;;;;;;;18.52;nan;100677.63;4920982;29;20110;-77
2023/05/07 07:52:31;;;;;;;5.28;1.90;;;;;;;18.60;nan;100687.72;4922950;29;20139;-78
2023/05/07 07:54:56;;;;;;;6.90;2.15;;;;;;;18.68;nan;100686.38;4926892;29;20457;-78
2023/05/07 07:57:22;;;;;;;3.85;1.52;;;;;;;18.63;nan;100673.06;4929118;29;21270;-79
2023/05/07 07:59:47;;;;;;;5.82;1.80;;;;;;;18.69;nan;100679.97;4931506;29;20044;-76
2023/05/07 08:02:12;;;;;;;3.55;2.00;;;;;;;18.69;nan;100671.97;4926200;29;20099;-75
2023/05/07 08:04:38;;;;;;;4.65;1.90;;;;;;;18.62;nan;100650.13;4923489;29;20036;-76
2023/05/07 08:07:03;;;;;;;6.57;1.90;;;;;;;18.83;nan;100669.56;4931654;29;20427;-76
2023/05/07 08:09:29;;;;;;;3.42;2.05;;;;;;;18.85;nan;100665.53;4928112;29;20120;-76
2023/05/07 08:11:54;;;;;;;4.20;2.05;;;;;;;18.91;nan;100658.28;4928469;29;20036;-79
2023/05/07 08:14:20;;;;;;;5.93;2.03;;;;;;;19.06;nan;100670.78;4936211;29;20028;-77
2023/05/07 08:16:45;;;;;;;3.70;1.88;;;;;;;19.09;nan;100670.22;4917654;29;20036;-77
2023/05/07 08:19:11;;;;;;;5.28;1.80;;;;;;;19.16;nan;100670.72;4937147;29;20032;-78
2023/05/07 08:21:39;;;;;;;4.28;2.17;;;;;;;19.29;nan;100667.44;4936200;29;20067;-77
2023/05/07 08:24:05;;;;;;;3.72;2.17;;;;;;;19.36;nan;100669.00;4933759;29;20487;-77
2023/05/07 08:26:30;;;;;;;2.80;1.90;;;;;;;19.43;nan;100669.50;4933148;29;20035;-78
2023/05/07 08:28:55;;;;;;;2.80;1.90;;;;;;;19.58;nan;100677.41;4937543;29;20063;-78
2023/05/07 08:31:21;;;;;;;3.83;1.77;;;;;;;19.64;nan;100675.50;4934182;29;20027;-78
2023/05/07 08:33:46;;;;;;;6.25;1.98;;;;;;;19.66;nan;100663.47;4936267;29;20371;-76
2023/05/07 08:36:11;;;;;;;10.07;2.00;;;;;;;19.80;nan;100670.84;4928212;29;20043;-75
2023/05/07 08:38:37;;;;;;;3.20;1.95;;;;;;;19.85;nan;100658.25;4940469;29;20032;-76
2023/05/07 08:41:02;;;;;;;3.80;1.92;;;;;;;19.93;nan;100654.19;4937735;29;20039;-76
2023/05/07 08:43:31;;;;;;;4.03;1.90;;;;;;;20.09;nan;100660.19;4940209;29;20091;-76
2023/05/07 08:46:00;;;;;;;5.95;2.10;;;;;;;20.18;nan;100658.47;4936546;29;20028;-77
2023/05/07 08:48:29;;;;;;;2.83;2.03;;;;;;;20.30;nan;100658.88;4940145;29;20036;-76
2023/05/07 08:50:54;;;;;;;;;;;;;;;20.44;nan;100660.91;4940191;29;20032;-79
2023/05/07 08:53:20;;;;;;;5.30;2.03;;;;;;;20.50;nan;100660.56;4922213;29;19926;-73
2023/05/07 08:55:47;;;;;;;4.45;2.00;;;;;;;20.63;nan;100663.66;4927432;29;20760;-74
2023/05/07 08:58:12;;;;;;;8.43;2.33;;;;;;;20.74;nan;100671.28;4924192;29;20392;-74
2023/05/07 09:00:40;;;;;;;2.45;2.00;;;;;;;20.80;nan;100653.28;4921812;29;20116;-73
2023/05/07 09:03:05;;;;;;;5.10;2.10;;;;;;;20.90;nan;100655.03;4939092;28;20111;-72
2023/05/07 09:05:31;;;;;;;3.55;2.15;;;;;;;20.98;nan;100673.94;4925590;29;20183;-74
2023/05/07 09:07:59;;;;;;;5.38;2.42;;;;;;;20.97;nan;100650.94;4925064;29;20035;-72
2023/05/07 09:10:26;;;;;;;7.20;2.08;;;;;;;21.11;nan;100663.59;4927626;29;20039;-74
2023/05/07 09:12:51;;;;;;;6.85;2.20;;;;;;;21.03;nan;100639.03;4929749;29;20059;-73
2023/05/07 09:15:18;;;;;;;4.35;2.10;;;;;;;21.24;nan;100658.31;4924954;29;20123;-72
2023/05/07 09:17:44;;;;;;;5.53;2.65;;;;;;;21.33;nan;100665.69;4924581;29;20028;-74
2023/05/07 09:20:09;;;;;;;7.38;2.33;;;;;;;21.34;nan;100651.22;4922411;29;20032;-73
2023/05/07 09:22:38;;;;;;;3.95;2.00;;;;;;;21.45;nan;100656.16;4924620;29;20047;-74
2023/05/07 09:25:04;;;;;;;4.10;2.55;;;;;;;21.54;nan;100658.97;4927911;28;20144;-71
2023/05/07 09:27:30;;;;;;;2.55;2.15;;;;;;;21.55;nan;100651.72;4924107;29;20089;-73
2023/05/07 09:29:55;;;;;;;5.43;2.22;;;;;;;21.57;nan;100646.84;4925911;29;20155;-72
2023/05/07 09:32:21;;;;;;;3.78;2.20;;;;;;;21.61;nan;100637.16;4925669;29;20612;-73
2023/05/07 09:34:47;;;;;;;3.20;2.38;;;;;;;21.60;nan;100627.53;4926359;29;20039;-73
2023/05/07 09:37:14;;;;;;;6.10;2.45;;;;;;;21.85;nan;100645.84;4922721;29;20553;-73
2023/05/07 09:39:47;;;;;;;5.38;2.25;;;;;;;21.91;nan;100651.13;4921627;29;20043;-73
2023/05/07 09:42:16;;;;;;;5.50;2.58;;;;;;;21.95;nan;100644.09;4924605;29;20032;-73
2023/05/07 09:44:44;;;;;;;6.10;2.20;;;;;;;22.00;nan;100634.06;4924503;29;20406;-73
2023/05/07 09:47:11;;;;;;;2.40;2.05;;;;;;;22.01;nan;100626.84;4929402;29;20087;-74
2023/05/07 09:49:39;;;;;;;8.10;2.47;;;;;;;22.05;nan;100628.63;4924157;29;20024;-70
2023/05/07 09:52:08;;;;;;;3.88;2.28;;;;;;;21.99;nan;100631.69;4925637;29;20023;-71
2023/05/07 09:54:34;;;;;;;;;;;;;;;22.07;nan;100641.72;4923774;29;20063;-71
2023/05/07 09:57:02;;;;;;;5.60;2.28;;;;;;;22.04;nan;100639.63;4922817;29;19923;-71
2023/05/07 09:59:31;;;;;;;3.80;2.22;;;;;;;22.09;nan;100644.91;4924943;29;20114;-74
2023/05/07 10:02:01;;;;;;;3.40;2.00;;;;;;;22.04;nan;100642.31;4926109;29;20032;-72
2023/05/07 10:04:27;;;;;;;6.03;2.60;;;;;;;22.02;nan;100631.09;4924627;29;20027;-75
2023/05/07 10:06:53;;;;;;;8.75;2.60;;;;;;;22.13;nan;100650.50;4926001;29;20398;-70
2023/05/07 10:09:20;;;;;;;5.10;2.10;;;;;;;22.13;nan;100643.22;4925129;29;20024;-72
2023/05/07 10:11:45;;;;;;;4.57;1.92;;;;;;;22.21;nan;100641.78;4924844;29;20110;-70
2023/05/07 10:14:11;;;;;;;3.40;2.10;;;;;;;22.26;nan;100636.31;4921576;29;20122;-73
2023/05/07 10:16:37;;;;;;;5.07;2.05;;;;;;;22.25;nan;100630.16;4930148;29;20027;-72
2023/05/07 10:19:07;;;;;;;2.63;2.03;;;;;;;22.34;nan;100646.38;4925062;29;20119;-71
2023/05/07 10:21:37;;;;;;;4.95;2.30;;;;;;;22.37;nan;100629.66;4927112;29;20082;-72
2023/05/07 10:24:25;;;;;;;6.72;2.42;;;;;;;22.38;nan;100623.19;4920882;29;20470;-73
2023/05/07 10:26:52;;;;;;;3.47;2.10;;;;;;;22.46;nan;100633.25;4924974;29;20059;-72
2023/05/07 10:29:18;;;;;;;5.97;2.47;;;;;;;22.56;nan;100632.25;4924353;29;20047;-73
2023/05/07 10:31:55;;;;;;;3.53;2.20;;;;;;;22.55;nan;100613.75;4925015;29;20406;-69
2023/05/07 10:34:26;;;;;;;5.03;2.10;;;;;;;22.70;nan;100634.91;4921260;29;20043;-69
2023/05/07 10:36:54;;;;;;;3.25;2.28;;;;;;;22.65;nan;100618.91;4922379;29;20119;-68
2023/05/07 10:39:21;;;;;;;6.95;2.13;;;;;;;22.63;nan;100603.09;4923982;29;20579;-71
2023/05/07 10:41:47;;;;;;;4.80;1.85;;;;;;;;;;4926366;29;20039;-72
2023/05/07 10:44:28;;;;;;;3.92;1.90;;;;;;;22.72;nan;100609.38;4923094;29;20483;-73
2023/05/07 10:47:04;;;;;;;4.63;2.65;;;;;;;22.69;nan;100595.72;4923746;29;20062;-74
2023/05/07 10:49:30;;;;;;;4.40;2.40;;;;;;;22.80;nan;100605.16;4922839;29;20446;-70
2023/05/07 10:52:18;;;;;;;4.28;2.10;;;;;;;22.87;nan;100618.97;4922420;29;20106;-70
2023/05/07 10:54:44;;;;;;;5.00;2.05;;;;;;;22.88;nan;100606.34;4922101;29;20031;-70
2023/05/07 10:57:31;;;;;;;7.43;2.20;;;;;;;22.95;nan;100614.78;4938368;28;20087;-73
2023/05/07 10:59:57;;;;;;;7.18;2.75;;;;;;;22.98;nan;100603.44;4923146;29;20023;-72
2023/05/07 11:02:23;;;;;;;3.25;2.30;;;;;;;23.09;nan;100604.81;4922711;29;20538;-72
2023/05/07 11:05:19;;;;;;;2.67;2.20;;;;;;;23.17;nan;100615.94;4922136;29;20513;-74
2023/05/07 11:07:56;;;;;;;3.35;2.08;;;;;;;23.23;nan;100617.41;4922943;29;20062;-73
2023/05/07 11:10:22;;;;;;;4.40;2.22;;;;;;;23.28;nan;100615.38;4924233;29;20098;-72
2023/05/07 11:12:49;;;;;;;6.25;2.42;;;;;;;23.23;nan;100598.59;4921146;29;20736;-73
2023/05/07 11:15:15;;;;;;;4.50;2.17;;;;;;;23.33;nan;100607.19;4923731;29;20043;-73
2023/05/07 11:18:01;;;;;;;2.92;2.10;;;;;;;23.40;nan;100612.16;4926243;29;20114;-72
2023/05/07 11:20:46;;;;;;;4.90;2.28;;;;;;;23.44;nan;100607.75;4924040;29;20047;-73
2023/05/07 11:23:33;;;;;;;2.28;1.90;;;;;;;23.51;nan;100602.75;4923706;29;20032;-75
2023/05/07 11:26:09;;;;;;;4.07;2.33;;;;;;;23.57;nan;100600.72;4922217;29;20052;-74
2023/05/07 11:28:42;;;;;;;3.88;2.22;;;;;;;23.62;nan;100600.59;4919662;29;20368;-72
2023/05/07 11:31:08;;;;;;;3.75;2.40;;;;;;;23.66;nan;100595.41;4923396;29;20028;-74
2023/05/07 11:33:34;;;;;;;3.85;2.30;;;;;;;23.70;nan;100593.66;4921183;29;20027;-74
2023/05/07 11:36:02;;;;;;;6.15;2.20;;;;;;;23.68;nan;100588.63;4917631;29;20024;-74
2023/05/07 11:38:29;;;;;;;3.35;2.03;;;;;;;23.69;nan;100586.72;4922702;29;20036;-74